createdAt,value
2019-04-06T00:02:11.184Z,2.15
2019-04-06T00:04:38.544Z,2.10
2019-04-06T00:07:05.911Z,2.07
2019-04-06T00:09:33.211Z,2.01
2019-04-06T00:12:00.267Z,2.03
2019-04-06T00:14:29.203Z,2.05
2019-04-06T00:16:56.529Z,2.06
2019-04-06T00:19:23.564Z,2.11
2019-04-06T00:21:50.862Z,2.16
2019-04-06T00:24:17.902Z,2.18
2019-04-06T00:26:45.198Z,2.18
2019-04-06T00:29:12.228Z,2.19
2019-04-06T00:31:39.277Z,2.17
2019-04-06T00:34:07.725Z,2.13
2019-04-06T00:36:35.026Z,2.12
2019-04-06T00:39:02.417Z,2.09
2019-04-06T00:41:30.542Z,2.09
2019-04-06T00:43:57.845Z,2.09
2019-04-06T00:46:24.883Z,2.09
2019-04-06T00:48:51.939Z,2.07
2019-04-06T00:51:19.363Z,2.06
2019-04-06T00:53:47.679Z,2.05
2019-04-06T00:56:14.722Z,2.03
2019-04-06T00:58:41.768Z,2.01
2019-04-06T01:01:08.800Z,1.99
2019-04-06T01:03:35.970Z,2.04
2019-04-06T01:06:03.238Z,2.04
2019-04-06T01:08:30.963Z,1.98
2019-04-06T01:10:58.010Z,1.93
2019-04-06T01:13:25.064Z,1.87
2019-04-06T01:15:52.378Z,1.79
2019-04-06T01:18:19.423Z,1.82
2019-04-06T01:20:47.678Z,1.82
2019-04-06T01:23:14.989Z,1.81
2019-04-06T01:25:42.276Z,1.78
2019-04-06T01:28:09.572Z,1.69
2019-04-06T01:30:36.869Z,1.64
2019-04-06T01:33:04.238Z,1.59
2019-04-06T01:35:31.280Z,1.58
2019-04-06T01:37:58.590Z,1.56
2019-04-06T01:40:25.699Z,1.56
2019-04-06T01:42:53.074Z,1.58
2019-04-06T01:45:20.129Z,1.71
2019-04-06T01:47:47.462Z,1.90
2019-04-06T01:50:14.815Z,2.14
2019-04-06T01:52:42.201Z,2.35
2019-04-06T01:55:09.176Z,2.46
2019-04-06T01:57:36.230Z,2.58
2019-04-06T02:00:03.514Z,2.66
2019-04-06T02:02:31.886Z,2.63
2019-04-06T02:05:00.331Z,2.48
2019-04-06T02:07:27.621Z,2.40
2019-04-06T02:09:54.922Z,2.41
2019-04-06T02:12:22.331Z,2.41
2019-04-06T02:14:49.603Z,2.28
2019-04-06T02:17:16.639Z,2.35
2019-04-06T02:19:43.775Z,2.43
2019-04-06T02:22:11.065Z,2.51
2019-04-06T02:24:38.122Z,2.59
2019-04-06T02:27:05.394Z,2.66
2019-04-06T02:29:32.711Z,2.74
2019-04-06T02:31:59.867Z,2.84
2019-04-06T02:34:27.273Z,2.95
2019-04-06T02:36:54.265Z,3.07
2019-04-06T02:39:21.612Z,3.27
2019-04-06T02:41:48.946Z,3.36
2019-04-06T02:44:16.279Z,3.41
2019-04-06T02:46:43.663Z,3.51
2019-04-06T02:49:10.961Z,3.60
2019-04-06T02:51:38.351Z,3.68
2019-04-06T02:54:05.554Z,3.63
2019-04-06T02:56:45.078Z,3.52
2019-04-06T02:59:01.639Z,3.37
2019-04-06T03:01:28.753Z,3.22
2019-04-06T03:03:55.840Z,2.94
2019-04-06T03:06:23.144Z,2.74
2019-04-06T03:08:50.563Z,2.43
2019-04-06T03:11:17.820Z,2.21
2019-04-06T03:13:45.201Z,2.07
2019-04-06T03:16:12.257Z,1.88
2019-04-06T03:18:39.586Z,1.77
2019-04-06T03:21:07.078Z,1.72
2019-04-06T03:23:49.172Z,1.72
2019-04-06T03:26:03.247Z,1.82
2019-04-06T03:28:30.271Z,1.96
2019-04-06T03:30:58.992Z,2.01
2019-04-06T03:33:26.068Z,1.99
2019-04-06T03:35:53.399Z,1.93
2019-04-06T03:38:20.596Z,1.77
2019-04-06T03:40:47.618Z,1.55
2019-04-06T03:43:14.671Z,1.44
2019-04-06T03:45:41.960Z,1.38
2019-04-06T03:48:09.279Z,1.34
2019-04-06T03:50:36.634Z,1.32
2019-04-06T03:53:03.806Z,1.28
2019-04-06T03:55:30.813Z,1.22
2019-04-06T03:57:57.859Z,1.17
2019-04-06T04:00:25.234Z,1.14
2019-04-06T04:02:53.721Z,1.11
2019-04-06T04:05:20.736Z,1.16
2019-04-06T04:07:48.150Z,1.17
2019-04-06T04:10:15.473Z,1.15
2019-04-06T04:12:42.527Z,1.15
2019-04-06T04:15:09.586Z,1.19
2019-04-06T04:17:36.633Z,1.26
2019-04-06T04:20:03.795Z,1.32
2019-04-06T04:22:34.477Z,1.39
2019-04-06T04:25:00.520Z,1.47
2019-04-06T04:27:30.183Z,1.54
2019-04-06T04:29:56.589Z,1.51
2019-04-06T04:32:23.940Z,1.44
2019-04-06T04:34:51.278Z,1.34
2019-04-06T04:37:18.736Z,1.28
2019-04-06T04:39:46.020Z,1.14
2019-04-06T04:42:13.079Z,1.09
2019-04-06T04:44:40.116Z,1.08
2019-04-06T04:47:07.231Z,1.13
2019-04-06T04:49:34.485Z,1.20
2019-04-06T04:52:01.538Z,1.29
2019-04-06T04:54:28.887Z,1.41
2019-04-06T04:56:56.317Z,1.50
2019-04-06T04:59:23.720Z,1.60
2019-04-06T05:01:51.042Z,1.68
2019-04-06T05:04:19.363Z,1.71
2019-04-06T05:06:46.911Z,1.74
2019-04-06T05:09:14.310Z,1.84
2019-04-06T05:11:41.625Z,1.89
2019-04-06T05:14:08.672Z,1.94
2019-04-06T05:16:35.809Z,2.04
2019-04-06T05:19:03.281Z,2.12
2019-04-06T05:21:30.615Z,2.19
2019-04-06T05:23:57.666Z,2.25
2019-04-06T05:26:24.725Z,2.36
2019-04-06T05:28:52.080Z,2.41
2019-04-06T05:31:19.128Z,2.44
2019-04-06T05:33:46.168Z,2.55
2019-04-06T05:36:14.376Z,2.66
2019-04-06T05:38:41.687Z,2.77
2019-04-06T05:41:09.044Z,2.90
2019-04-06T05:43:36.398Z,2.98
2019-04-06T05:46:03.776Z,3.05
2019-04-06T05:48:31.114Z,3.10
2019-04-06T05:50:58.469Z,3.13
2019-04-06T05:53:25.823Z,3.25
2019-04-06T05:55:52.875Z,3.32
2019-04-06T05:58:20.243Z,3.44
2019-04-06T06:00:47.285Z,3.58
2019-04-06T06:03:15.542Z,3.76
2019-04-06T06:05:42.666Z,3.89
2019-04-06T06:08:10.297Z,3.96
2019-04-06T06:10:38.609Z,4.05
2019-04-06T06:13:06.279Z,4.11
2019-04-06T06:15:33.310Z,4.19
2019-04-06T06:18:00.888Z,4.23
2019-04-06T06:20:28.267Z,4.17
2019-04-06T06:22:55.765Z,4.20
2019-04-06T06:25:23.202Z,4.34
2019-04-06T06:27:50.260Z,4.38
2019-04-06T06:30:17.804Z,4.46
2019-04-06T06:32:44.931Z,4.60
2019-04-06T06:35:11.984Z,4.49
2019-04-06T06:37:39.339Z,4.40
2019-04-06T06:40:06.383Z,4.41
2019-04-06T06:42:33.441Z,4.49
2019-04-06T06:45:00.484Z,4.56
2019-04-06T06:47:27.856Z,4.60
2019-04-06T06:49:54.905Z,4.59
2019-04-06T06:52:22.240Z,4.63
2019-04-06T06:54:49.279Z,4.71
2019-04-06T06:57:16.647Z,4.88
2019-04-06T06:59:44.015Z,4.99
2019-04-06T07:02:11.077Z,5.07
2019-04-06T07:04:38.127Z,5.17
2019-04-06T07:07:05.196Z,5.14
2019-04-06T07:09:32.236Z,5.19
2019-04-06T07:11:59.298Z,5.28
2019-04-06T07:14:26.596Z,5.41
2019-04-06T07:16:53.655Z,5.56
2019-04-06T07:19:21.018Z,5.60
2019-04-06T07:21:48.366Z,5.75
2019-04-06T07:24:15.708Z,5.92
2019-04-06T07:26:43.105Z,6.07
2019-04-06T07:29:10.143Z,6.23
2019-04-06T07:31:37.483Z,6.35
2019-04-06T07:34:04.837Z,6.45
2019-04-06T07:36:32.272Z,6.46
2019-04-06T07:38:59.632Z,6.48
2019-04-06T07:41:26.987Z,6.57
2019-04-06T07:43:54.559Z,6.68
2019-04-06T07:46:22.058Z,6.83
2019-04-06T07:48:49.372Z,6.90
2019-04-06T07:51:16.418Z,7.01
2019-04-06T07:53:43.531Z,7.05
2019-04-06T07:56:10.572Z,7.16
2019-04-06T07:58:47.842Z,7.14
2019-04-06T08:01:07.056Z,7.13
2019-04-06T08:03:34.367Z,7.19
2019-04-06T08:06:01.422Z,7.28
2019-04-06T08:08:29.070Z,7.35
2019-04-06T08:10:56.699Z,7.45
2019-04-06T08:13:23.753Z,7.49
2019-04-06T08:15:50.797Z,7.55
2019-04-06T08:18:18.240Z,7.58
2019-04-06T08:20:45.246Z,7.68
2019-04-06T08:23:12.304Z,7.76
2019-04-06T08:25:39.350Z,7.81
2019-04-06T08:28:06.401Z,7.90
2019-04-06T08:30:50.109Z,7.97
2019-04-06T08:33:17.522Z,8.00
2019-04-06T08:35:44.824Z,8.06
2019-04-06T08:38:12.147Z,8.13
2019-04-06T08:40:39.484Z,8.29
2019-04-06T08:43:06.840Z,8.38
2019-04-06T08:45:34.211Z,8.40
2019-04-06T08:48:01.675Z,8.51
2019-04-06T08:50:28.716Z,8.54
2019-04-06T08:52:56.076Z,8.77
2019-04-06T08:55:23.411Z,8.99
2019-04-06T08:57:51.220Z,9.18
2019-04-06T09:00:18.248Z,9.18
2019-04-06T09:02:45.291Z,9.21
2019-04-06T09:05:12.629Z,9.34
2019-04-06T09:07:40.941Z,9.48
2019-04-06T09:10:08.601Z,9.56
2019-04-06T09:12:35.920Z,9.58
2019-04-06T09:15:03.256Z,9.61
2019-04-06T09:17:30.288Z,9.79
2019-04-06T09:19:57.743Z,9.88
2019-04-06T09:22:25.346Z,10.15
2019-04-06T09:24:53.560Z,10.37
2019-04-06T09:27:20.613Z,10.67
2019-04-06T09:29:47.674Z,11.03
2019-04-06T09:32:15.090Z,11.18
2019-04-06T09:34:42.428Z,11.32
2019-04-06T09:37:09.799Z,11.59
2019-04-06T09:39:37.257Z,11.79
2019-04-06T09:42:04.838Z,12.11
2019-04-06T09:44:31.851Z,12.35
2019-04-06T09:47:00.345Z,12.99
2019-04-06T09:49:27.483Z,13.78
2019-04-06T09:51:54.528Z,14.15
2019-04-06T09:54:21.858Z,14.15
2019-04-06T09:56:49.109Z,14.39
2019-04-06T09:59:17.617Z,14.49
2019-04-06T10:01:44.818Z,15.14
2019-04-06T10:04:12.128Z,15.18
2019-04-06T10:06:39.684Z,15.70
2019-04-06T10:09:07.485Z,16.36
2019-04-06T10:11:34.815Z,16.59
2019-04-06T10:14:02.179Z,16.84
2019-04-06T10:16:29.508Z,16.45
2019-04-06T10:18:56.641Z,15.59
2019-04-06T10:21:23.694Z,14.91
2019-04-06T10:23:51.066Z,14.36
2019-04-06T10:26:19.195Z,14.09
2019-04-06T10:28:46.486Z,13.98
2019-04-06T10:31:13.862Z,14.12
2019-04-06T10:33:40.891Z,13.80
2019-04-06T10:36:08.247Z,13.61
2019-04-06T10:38:35.602Z,13.18
2019-04-06T10:41:02.958Z,12.79
2019-04-06T10:43:30.391Z,12.60
2019-04-06T10:45:57.688Z,12.44
2019-04-06T10:48:25.024Z,12.38
2019-04-06T10:50:52.844Z,12.46
2019-04-06T10:53:19.903Z,12.53
2019-04-06T10:55:47.304Z,12.74
2019-04-06T10:58:15.778Z,14.13
2019-04-06T11:00:44.564Z,14.36
2019-04-06T11:03:11.967Z,14.14
2019-04-06T11:05:39.278Z,14.14
2019-04-06T11:08:06.630Z,13.80
2019-04-06T11:10:33.959Z,13.54
2019-04-06T11:13:01.347Z,13.08
2019-04-06T11:15:28.480Z,13.04
2019-04-06T11:17:55.550Z,13.42
2019-04-06T11:20:22.584Z,13.62
2019-04-06T11:22:49.945Z,13.80
2019-04-06T11:25:17.389Z,13.82
2019-04-06T11:27:45.635Z,13.59
2019-04-06T11:30:14.842Z,13.56
2019-04-06T11:32:42.288Z,13.32
2019-04-06T11:35:09.353Z,13.24
2019-04-06T11:37:36.413Z,13.34
2019-04-06T11:40:04.429Z,13.28
2019-04-06T11:42:31.754Z,13.29
2019-04-06T11:44:58.802Z,13.22
2019-04-06T11:47:26.931Z,13.54
2019-04-06T11:49:54.553Z,13.71
2019-04-06T11:52:21.670Z,13.64
2019-04-06T11:54:49.041Z,13.57
2019-04-06T11:57:16.110Z,13.43
2019-04-06T11:59:43.611Z,13.95
2019-04-06T12:02:11.000Z,15.34
2019-04-06T12:04:38.039Z,15.36
2019-04-06T12:07:05.407Z,14.68
2019-04-06T12:09:32.729Z,14.21
2019-04-06T12:12:00.031Z,14.05
2019-04-06T12:14:27.383Z,13.88
2019-04-06T12:16:54.733Z,13.66
2019-04-06T12:19:22.101Z,13.63
2019-04-06T12:21:49.156Z,13.54
2019-04-06T12:24:16.776Z,13.40
2019-04-06T12:26:44.176Z,13.31
2019-04-06T12:29:11.338Z,13.25
2019-04-06T12:31:38.754Z,13.33
2019-04-06T12:34:06.107Z,14.08
2019-04-06T12:36:33.256Z,14.90
2019-04-06T12:39:00.639Z,15.19
2019-04-06T12:41:29.349Z,16.02
2019-04-06T12:43:56.757Z,16.05
2019-04-06T12:46:24.212Z,15.59
2019-04-06T12:48:52.740Z,15.23
2019-04-06T12:51:20.497Z,15.31
2019-04-06T12:53:48.835Z,15.77
2019-04-06T12:56:16.302Z,15.70
2019-04-06T12:58:43.422Z,15.32
2019-04-06T13:01:10.930Z,14.85
2019-04-06T13:03:38.191Z,14.64
2019-04-06T13:06:05.633Z,15.01
2019-04-06T13:08:32.969Z,15.39
2019-04-06T13:11:00.326Z,15.71
2019-04-06T13:13:27.696Z,16.09
2019-04-06T13:15:54.757Z,16.41
2019-04-06T13:18:21.804Z,16.89
2019-04-06T13:20:48.848Z,17.34
2019-04-06T13:23:16.182Z,17.07
2019-04-06T13:25:43.531Z,16.87
2019-04-06T13:28:10.802Z,16.48
2019-04-06T13:30:38.517Z,16.87
2019-04-06T13:33:05.876Z,16.55
2019-04-06T13:35:32.905Z,16.15
2019-04-06T13:38:00.515Z,16.12
2019-04-06T13:40:28.810Z,15.71
2019-04-06T13:42:56.145Z,15.70
2019-04-06T13:45:23.500Z,15.53
2019-04-06T13:47:51.586Z,15.56
2019-04-06T13:50:18.951Z,15.74
2019-04-06T13:52:46.010Z,15.89
2019-04-06T13:55:13.297Z,15.84
2019-04-06T13:57:40.683Z,15.83
2019-04-06T14:00:08.041Z,15.53
2019-04-06T14:02:35.275Z,15.49
2019-04-06T14:05:02.874Z,15.38
2019-04-06T14:07:29.877Z,15.48
2019-04-06T14:09:57.260Z,15.59
2019-04-06T14:12:24.388Z,15.80
2019-04-06T14:14:51.766Z,15.64
2019-04-06T14:17:19.117Z,15.54
2019-04-06T14:19:46.471Z,15.53
2019-04-06T14:22:13.832Z,15.41
2019-04-06T14:24:41.201Z,15.40
2019-04-06T14:27:08.662Z,15.40
2019-04-06T14:29:36.048Z,15.35
2019-04-06T14:32:03.900Z,15.29
2019-04-06T14:34:31.008Z,15.19
2019-04-06T14:36:58.306Z,15.07
2019-04-06T14:39:25.459Z,15.01
2019-04-06T14:41:53.307Z,14.84
2019-04-06T14:44:20.612Z,14.79
2019-04-06T14:46:48.131Z,14.83
2019-04-06T14:49:28.859Z,14.91
2019-04-06T14:51:43.928Z,14.95
2019-04-06T14:54:11.542Z,15.09
2019-04-06T14:56:38.951Z,15.19
2019-04-06T14:59:06.016Z,15.25
2019-04-06T15:01:41.189Z,15.24
2019-04-06T15:04:02.469Z,15.15
2019-04-06T15:06:29.511Z,15.09
2019-04-06T15:08:56.852Z,15.19
2019-04-06T15:11:24.182Z,15.11
2019-04-06T15:13:51.700Z,15.07
2019-04-06T15:16:19.125Z,15.13
2019-04-06T15:18:46.377Z,15.18
2019-04-06T15:21:13.487Z,15.28
2019-04-06T15:23:41.005Z,15.31
2019-04-06T15:26:08.456Z,15.28
2019-04-06T15:28:35.505Z,15.23
2019-04-06T15:31:02.638Z,15.14
2019-04-06T15:33:29.995Z,15.17
2019-04-06T15:35:57.349Z,15.07
2019-04-06T15:38:24.644Z,15.12
2019-04-06T15:40:51.862Z,15.12
2019-04-06T15:43:19.793Z,15.07
2019-04-06T15:45:47.177Z,15.07
2019-04-06T15:48:14.533Z,15.04
2019-04-06T15:50:41.886Z,15.03
2019-04-06T15:53:08.939Z,14.97
2019-04-06T15:55:36.084Z,15.02
2019-04-06T15:58:03.130Z,15.07
2019-04-06T16:00:30.594Z,15.02
2019-04-06T16:02:57.849Z,15.02
2019-04-06T16:05:24.866Z,15.00
2019-04-06T16:07:51.924Z,14.97
2019-04-06T16:10:18.988Z,14.98
2019-04-06T16:12:47.109Z,14.99
2019-04-06T16:15:14.182Z,14.94
2019-04-06T16:17:41.565Z,14.98
2019-04-06T16:20:09.729Z,15.03
2019-04-06T16:22:37.246Z,14.99
2019-04-06T16:25:04.627Z,15.00
2019-04-06T16:27:31.932Z,15.00
2019-04-06T16:29:59.280Z,14.98
2019-04-06T16:32:32.424Z,14.99
2019-04-06T16:34:55.409Z,14.90
2019-04-06T16:37:22.765Z,14.84
2019-04-06T16:39:50.115Z,14.79
2019-04-06T16:42:17.176Z,14.75
2019-04-06T16:44:44.228Z,14.67
2019-04-06T16:47:11.569Z,14.56
2019-04-06T16:49:38.925Z,14.45
2019-04-06T16:52:05.999Z,14.37
2019-04-06T16:54:33.325Z,14.24
2019-04-06T16:57:00.683Z,14.14
2019-04-06T16:59:27.808Z,14.06
2019-04-06T17:01:54.927Z,13.95
2019-04-06T17:04:22.356Z,13.85
2019-04-06T17:06:49.852Z,13.73
2019-04-06T17:09:17.054Z,13.65
2019-04-06T17:11:44.379Z,13.57
2019-04-06T17:14:11.681Z,13.47
2019-04-06T17:16:39.007Z,13.39
2019-04-06T17:19:20.633Z,13.25
2019-04-06T17:21:48.260Z,13.16
2019-04-06T17:24:16.761Z,13.00
2019-04-06T17:26:44.543Z,12.92
2019-04-06T17:29:13.835Z,12.87
2019-04-06T17:31:43.995Z,12.76
2019-04-06T17:34:10.895Z,12.67
2019-04-06T17:36:41.967Z,12.60
2019-04-06T17:39:16.819Z,12.52
2019-04-06T17:41:44.422Z,12.42
2019-04-06T17:44:18.551Z,12.39
2019-04-06T17:46:46.233Z,12.35
2019-04-06T17:49:29.615Z,12.26
2019-04-06T17:54:33.508Z,12.11
2019-04-06T17:57:00.838Z,12.00
2019-04-06T17:59:31.283Z,11.85
2019-04-06T18:07:25.421Z,11.35
2019-04-06T18:09:56.666Z,11.20
2019-04-06T18:12:24.649Z,11.10
2019-04-06T18:14:52.975Z,10.99
2019-04-06T18:17:20.230Z,10.89
2019-04-06T18:19:57.282Z,10.83
2019-04-06T18:22:26.776Z,10.81
2019-04-06T18:25:04.172Z,10.83
2019-04-06T18:27:34.440Z,10.86
2019-04-06T18:30:01.669Z,10.89
2019-04-06T18:32:34.812Z,10.87
2019-04-06T18:35:05.086Z,10.95
2019-04-06T18:37:33.639Z,10.99
2019-04-06T18:40:01.845Z,11.04
2019-04-06T18:42:29.682Z,11.03
2019-04-06T18:44:57.340Z,11.01
2019-04-06T18:47:24.527Z,10.97
2019-04-06T18:49:52.379Z,10.91
2019-04-06T18:52:20.229Z,10.84
2019-04-06T18:57:32.362Z,10.82
2019-04-06T19:00:00.828Z,10.84
2019-04-06T19:02:28.475Z,10.86
2019-04-06T19:04:55.843Z,10.85
2019-04-06T19:07:25.071Z,10.86
2019-04-06T19:09:52.339Z,10.92
2019-04-06T19:12:19.974Z,10.94
2019-04-06T19:19:53.838Z,11.13
2019-04-06T19:22:22.110Z,11.06
2019-04-06T19:24:51.320Z,10.97
2019-04-06T19:27:18.559Z,10.89
2019-04-06T19:29:49.365Z,10.82
2019-04-06T19:32:33.133Z,10.74
2019-04-06T19:42:57.341Z,10.61
2019-04-06T19:45:24.963Z,10.72
2019-04-06T19:47:54.131Z,10.85
2019-04-06T19:50:23.345Z,10.96
2019-04-06T19:52:57.921Z,11.01
2019-04-06T19:55:25.553Z,10.85
2019-04-06T19:57:57.216Z,10.67
2019-04-06T20:02:59.478Z,10.29
2019-04-06T20:05:29.672Z,10.13
2019-04-06T20:07:57.853Z,10.04
2019-04-06T20:10:25.139Z,9.98
2019-04-06T20:12:52.427Z,9.91
2019-04-06T20:15:24.407Z,9.83
2019-04-06T20:17:54.017Z,9.76
2019-04-06T20:25:38.135Z,9.40
2019-04-06T20:30:58.083Z,9.00
2019-04-06T20:33:30.502Z,8.83
2019-04-06T20:35:57.744Z,8.78
2019-04-06T20:38:26.157Z,8.87
2019-04-06T20:40:53.877Z,9.07
2019-04-06T20:43:22.064Z,9.24
2019-04-06T20:45:49.335Z,9.32
2019-04-06T20:48:25.748Z,9.37
2019-04-06T20:50:52.813Z,9.40
2019-04-06T20:53:22.643Z,9.42
2019-04-06T20:58:26.887Z,9.43
2019-04-06T21:00:54.519Z,9.45
2019-04-06T21:03:23.298Z,9.60
2019-04-06T21:05:52.822Z,9.68
2019-04-06T21:08:27.195Z,9.63
2019-04-06T21:10:58.013Z,9.57
2019-04-06T21:13:25.435Z,9.54
2019-04-06T21:15:53.636Z,9.25
2019-04-06T21:18:24.372Z,8.88
2019-04-06T21:28:58.339Z,8.74
2019-04-06T21:31:25.561Z,8.75
2019-04-06T21:36:38.005Z,8.84
2019-04-06T21:47:16.744Z,9.07
2019-04-06T21:49:45.988Z,9.20
2019-04-06T21:52:13.026Z,9.17
2019-04-06T21:54:40.973Z,9.07
2019-04-06T21:57:20.030Z,9.00
2019-04-06T21:59:47.345Z,8.84
2019-04-06T22:02:14.811Z,8.73
2019-04-06T22:04:41.936Z,8.56
2019-04-06T22:07:09.831Z,8.43
2019-04-06T22:09:37.007Z,8.29
2019-04-06T22:12:04.051Z,8.15
2019-04-06T22:14:31.641Z,8.08
2019-04-06T22:16:59.312Z,8.04
2019-04-06T22:19:27.782Z,8.03
2019-04-06T22:21:55.409Z,8.02
2019-04-06T22:24:22.509Z,8.11
2019-04-06T22:26:49.683Z,8.32
2019-04-06T22:29:17.344Z,8.47
2019-04-06T22:31:44.922Z,8.60
2019-04-06T22:34:12.571Z,8.62
2019-04-06T22:36:40.182Z,8.52
2019-04-06T22:39:07.478Z,8.27
2019-04-06T22:41:35.405Z,8.09
2019-04-06T22:44:03.022Z,7.97
2019-04-06T22:46:31.570Z,8.22
2019-04-06T22:48:58.967Z,8.50
2019-04-06T22:51:26.502Z,8.68
2019-04-06T22:53:53.537Z,8.71
2019-04-06T22:56:21.429Z,8.79
2019-04-06T22:58:49.343Z,8.91
2019-04-06T23:01:16.656Z,9.08
2019-04-06T23:03:45.013Z,9.11
2019-04-06T23:06:12.306Z,9.19
2019-04-06T23:08:39.618Z,9.36
2019-04-06T23:11:06.937Z,9.16
2019-04-06T23:13:34.533Z,8.48
2019-04-06T23:16:02.091Z,7.97
2019-04-06T23:18:29.368Z,7.76
2019-04-06T23:20:56.567Z,7.85
2019-04-06T23:23:23.624Z,8.10
2019-04-06T23:25:50.922Z,8.05
2019-04-06T23:28:18.210Z,8.17
2019-04-06T23:30:45.351Z,8.21
2019-04-06T23:33:12.378Z,8.46
2019-04-06T23:35:39.705Z,8.75
2019-04-06T23:38:07.465Z,8.92
2019-04-06T23:40:34.836Z,9.03
2019-04-06T23:43:02.116Z,9.04
2019-04-06T23:45:30.001Z,8.96
2019-04-06T23:47:57.293Z,8.88
2019-04-06T23:50:24.591Z,8.57
2019-04-06T23:52:51.637Z,7.83
2019-04-06T23:55:18.979Z,7.27
2019-04-06T23:57:46.562Z,7.04
